• Join FlightAware (Why Join?)
  • Login
  • US Flag 
10:58PM EST


 

Airport Tracker/Info


-or-


 

Live Flight TrackerFlight Track Log ✈ N989WU ✈ 22-Mar-2014 ✈ KEYW - KAPF

Flight Track Log - Related Links

Times and Time Zones

All times are in EDT time to prevent confusion due to time zone crossing. See the N989WU flight status page for this flight to view local times or setup timezone preferences in your user account.

Time Position Orientation Groundspeed Altitude Reporting Facility
EDT Latitude Longitude Course Direction KTS MPH feet Rate Location/Type
07:34PM 24.5542 -81.7311 11° North 100 115 700  Level Miami Center
07:35PM 24.5550 -81.7081 88° East 93 107 1,300 540 Climbing Miami Center
07:36PM 24.5558 -81.6831 88° East 87 100 1,800 480 Climbing Miami Center
07:37PM 24.6873 -81.7325 11° North  Level FlightAware Approximate
07:37PM 24.5567 -81.6558 88° East 87 100 2,300  Level Miami Center
07:38PM 24.5594 -81.6331 82° East 87 100 2,800 480 Climbing Miami Center
07:39PM 24.5725 -81.6175 47° Northeast 75 86 3,300 420 Climbing Miami Center
07:40PM 24.5936 -81.6117 14° North 64 74 3,700 360 Climbing Miami Center
07:41PM 24.6125 -81.6100 North 64 74 4,100 360 Climbing Miami Center
07:42PM 24.6353 -81.6108 358° North 70 81 4,500 300 Climbing Miami Center
07:43PM 24.6586 -81.6072 North 70 81 4,800 300 Climbing Miami Center
07:44PM 24.6858 -81.6036 North 83 96 5,200 300 Climbing Miami Center
07:45PM 24.7089 -81.6000 North 83 96 5,500 300 Climbing Miami Center
07:46PM 24.7361 -81.5942 11° North 83 96 5,900 180 Climbing Miami Center
07:47PM 24.7617 -81.5836 21° North 88 101 5,900  Level Miami Center
07:48PM 24.7892 -81.5733 19° North 88 101 5,900  Level Miami Center
07:49PM 24.8181 -81.5767 354° North 93 107 5,900  Level Miami Center
07:50PM 24.8472 -81.5800 354° North 93 107 5,900  Level Miami Center
07:51PM 24.8744 -81.5833 354° North 98 113 5,900  Level Miami Center
07:52PM 24.9033 -81.5892 350° North 98 113 5,900  Level Miami Center
07:53PM 24.9303 -81.5947 349° North 103 119 5,900  Level Miami Center
07:54PM 24.9572 -81.6025 345° North 103 119 6,000  Climbing Miami Center
07:55PM 24.9864 -81.6083 350° North 103 119 5,900 -60 Descending Miami Center
07:56PM 25.0133 -81.6117 354° North 103 119 5,900  Level Miami Center
07:57PM 25.0381 -81.6194 344° North 103 119 5,900  Level Miami Center
07:58PM 25.0672 -81.6253 350° North 103 119 5,900  Level Miami Center
07:59PM 25.0942 -81.6308 349° North 103 119 5,900  Level Miami Center
08:00PM 25.1214 -81.6319 358° North 103 119 5,900 -60 Level Miami Center
08:01PM 25.1525 -81.6331 358° North 103 119 5,800 -60 Descending Miami Center
08:02PM 25.1797 -81.6319 North 103 119 5,800  Level Miami Center
08:03PM 25.2069 -81.6331 358° North 103 119 5,900  Climbing Miami Center
08:04PM 25.2342 -81.6317 North 103 119 5,800  Descending Miami Center
08:05PM 25.2611 -81.6350 354° North 103 119 5,900  Climbing Miami Center
08:06PM 25.2861 -81.6406 349° North 98 113 5,900  Level Miami Center
08:07PM 25.3106 -81.6508 339° North 93 107 5,900  Level Miami Center
08:08PM 25.3356 -81.6611 340° North 93 107 5,900  Level Miami Center
08:09PM 25.3625 -81.6644 354° North 93 107 5,900 -60 Level Miami Center
08:10PM 25.3894 -81.6678 354° North 87 100 5,800 -120 Descending Miami Center
08:11PM 25.4167 -81.6642 North 87 100 5,700 -300 Descending Miami Center
08:12PM 25.4506 -81.6564 12° North 94 108 5,200 -480 Descending Miami Center
08:13PM 25.4839 -81.6531 North 106 122 4,800 -480 Descending Miami Center
08:14PM 25.5153 -81.6567 354° North 112 129 4,300 -420 Descending Miami Center
08:15PM 25.5444 -81.6556 North 112 129 4,000 -300 Descending Miami Center
08:16PM 25.5736 -81.6544 North 102 117 3,800 -60 Descending Miami Center
08:17PM 25.6008 -81.6578 354° North 102 117 3,900  Climbing Miami Center
08:18PM 25.6258 -81.6564 North 102 117 3,900  Level Miami Center
08:19PM 25.6531 -81.6550 North 97 112 3,900  Level Miami Center
08:20PM 25.6800 -81.6586 353° North 97 112 4,000  Climbing Miami Center
08:21PM 25.7092 -81.6619 354° North 97 112 3,900 -60 Descending Miami Center
08:22PM 25.7361 -81.6678 349° North 102 117 3,900  Level Miami Center
08:23PM 25.7631 -81.6781 341° North 102 117 3,900  Level Miami Center
08:24PM 25.7878 -81.6858 344° North 102 117 3,900 -60 Level Miami Center
08:25PM 25.8144 -81.6961 341° North 95 109 3,800 -300 Descending Miami Center
08:26PM 25.8417 -81.6997 353° North 95 109 3,400 -360 Descending Miami Center
08:27PM 25.8683 -81.7075 345° North 101 116 3,100 -300 Descending Miami Center
08:29PM 25.8936 -81.7206 335° Northwest  Level FlightAware Approximate
08:36PM 26.0709 -81.7509 350° North  Level FlightAware Approximate
08:37PM 26.0963 -81.7559 350° North  Level FlightAware Approximate
08:38PM 26.1216 -81.7610 350° North  Level FlightAware Approximate
08:39PM 26.1469 -81.7660 350° North  Level FlightAware Approximate
08:40PM 26.1524 -81.7756 350° North  Level Estimated
08:41PM 26.1524 -81.7756 107° East  Level Estimated
08:42PM 26.1524 -81.7756 107° East  Level Estimated
08:43PM 26.1524 -81.7756 107° East  Level Estimated
08:44PM 26.1524 -81.7756 107° East  Level Estimated
08:45PM 26.1524 -81.7756 107° East  Level Estimated
08:46PM 26.1524 -81.7756 107° East  Level Estimated
08:47PM 26.1524 -81.7756 107° East  Level Estimated
08:48PM 26.1524 -81.7756 107° East  Level Estimated